sensor_id;sensor_type;location;lat;lon;timestamp;pressure;altitude;pressure_sealevel;temperature;humidity
45939;BME280;31650;48.818;9.116;2022-10-31T00:12:53;98497.97;;;9.36;100.00
45939;BME280;31650;48.818;9.116;2022-10-31T00:27:53;98492.56;;;9.08;100.00
45939;BME280;31650;48.818;9.116;2022-10-31T00:42:54;98489.31;;;9.19;100.00
45939;BME280;31650;48.818;9.116;2022-10-31T00:57:54;98493.97;;;9.04;100.00
45939;BME280;31650;48.818;9.116;2022-10-31T01:12:54;98487.13;;;8.80;100.00
45939;BME280;31650;48.818;9.116;2022-10-31T01:27:54;98487.44;;;8.70;100.00
45939;BME280;31650;48.818;9.116;2022-10-31T01:42:54;98482.59;;;8.59;100.00
45939;BME280;31650;48.818;9.116;2022-10-31T01:57:55;98471.44;;;8.47;100.00
45939;BME280;31650;48.818;9.116;2022-10-31T02:12:57;98477.47;;;8.49;100.00
45939;BME280;31650;48.818;9.116;2022-10-31T02:29:00;98478.31;;;8.49;100.00
45939;BME280;31650;48.818;9.116;2022-10-31T02:58:31;98473.13;;;8.11;100.00
45939;BME280;31650;48.818;9.116;2022-10-31T03:28:37;98467.56;;;8.20;100.00
45939;BME280;31650;48.818;9.116;2022-10-31T03:43:40;98474.09;;;8.04;100.00
45939;BME280;31650;48.818;9.116;2022-10-31T03:58:50;98470.38;;;7.90;100.00
45939;BME280;31650;48.818;9.116;2022-10-31T04:13:54;98450.63;;;8.11;100.00
45939;BME280;31650;48.818;9.116;2022-10-31T04:28:55;98440.88;;;7.95;100.00
45939;BME280;31650;48.818;9.116;2022-10-31T04:43:55;98441.25;;;7.56;100.00
45939;BME280;31650;48.818;9.116;2022-10-31T04:58:56;98433.44;;;7.46;100.00
45939;BME280;31650;48.818;9.116;2022-10-31T05:13:56;98413.94;;;7.36;100.00
45939;BME280;31650;48.818;9.116;2022-10-31T05:28:56;98416.03;;;7.34;100.00
45939;BME280;31650;48.818;9.116;2022-10-31T05:43:56;98398.41;;;7.08;100.00
45939;BME280;31650;48.818;9.116;2022-10-31T05:58:56;98406.25;;;7.03;100.00
45939;BME280;31650;48.818;9.116;2022-10-31T06:13:57;98386.84;;;7.29;100.00
45939;BME280;31650;48.818;9.116;2022-10-31T06:28:57;98390.19;;;7.01;100.00
45939;BME280;31650;48.818;9.116;2022-10-31T06:43:57;98397.84;;;7.28;100.00
45939;BME280;31650;48.818;9.116;2022-10-31T06:58:57;98395.59;;;7.67;100.00
45939;BME280;31650;48.818;9.116;2022-10-31T07:13:57;98402.44;;;8.28;100.00
45939;BME280;31650;48.818;9.116;2022-10-31T07:28:58;98405.66;;;8.60;100.00
45939;BME280;31650;48.818;9.116;2022-10-31T07:43:59;98402.63;;;9.11;100.00
45939;BME280;31650;48.818;9.116;2022-10-31T07:58:59;98395.84;;;9.90;100.00
45939;BME280;31650;48.818;9.116;2022-10-31T08:13:59;98405.38;;;10.47;100.00
45939;BME280;31650;48.818;9.116;2022-10-31T08:29:00;98403.59;;;11.26;100.00
45939;BME280;31650;48.818;9.116;2022-10-31T08:44:00;98390.84;;;12.10;100.00
45939;BME280;31650;48.818;9.116;2022-10-31T08:59:00;98365.59;;;12.71;100.00
45939;BME280;31650;48.818;9.116;2022-10-31T09:14:01;98347.47;;;13.39;100.00
45939;BME280;31650;48.818;9.116;2022-10-31T09:29:01;98332.47;;;14.32;100.00
45939;BME280;31650;48.818;9.116;2022-10-31T09:59:03;98319.63;;;15.55;100.00
45939;BME280;31650;48.818;9.116;2022-10-31T10:14:18;98298.34;;;16.20;100.00
45939;BME280;31650;48.818;9.116;2022-10-31T10:44:24;98256.25;;;16.82;100.00
45939;BME280;31650;48.818;9.116;2022-10-31T10:59:42;98244.09;;;17.22;95.83
45939;BME280;31650;48.818;9.116;2022-10-31T11:14:47;98212.97;;;17.93;100.00
45939;BME280;31650;48.818;9.116;2022-10-31T11:29:49;98189.97;;;17.77;87.21
45939;BME280;31650;48.818;9.116;2022-10-31T11:44:50;98169.72;;;18.73;77.66
45939;BME280;31650;48.818;9.116;2022-10-31T11:59:55;98162.22;;;18.53;77.73
45939;BME280;31650;48.818;9.116;2022-10-31T12:30:17;98116.78;;;19.54;74.38
45939;BME280;31650;48.818;9.116;2022-10-31T13:00:28;98074.09;;;18.48;83.95
45939;BME280;31650;48.818;9.116;2022-10-31T13:15:32;98055.69;;;17.58;89.98
45939;BME280;31650;48.818;9.116;2022-10-31T13:30:36;98030.88;;;17.85;89.69
45939;BME280;31650;48.818;9.116;2022-10-31T13:45:47;98032.63;;;18.80;81.25
45939;BME280;31650;48.818;9.116;2022-10-31T14:00:57;98014.94;;;18.56;82.03
45939;BME280;31650;48.818;9.116;2022-10-31T14:16:02;98015.50;;;17.90;90.91
45939;BME280;31650;48.818;9.116;2022-10-31T14:31:21;98004.72;;;17.08;100.00
45939;BME280;31650;48.818;9.116;2022-10-31T14:46:28;97994.63;;;16.87;100.00
45939;BME280;31650;48.818;9.116;2022-10-31T15:01:34;97991.16;;;16.69;100.00
45939;BME280;31650;48.818;9.116;2022-10-31T15:16:37;97984.88;;;16.47;100.00
45939;BME280;31650;48.818;9.116;2022-10-31T15:31:48;98011.94;;;15.38;100.00
45939;BME280;31650;48.818;9.116;2022-10-31T15:47:05;98021.75;;;14.14;100.00
45939;BME280;31650;48.818;9.116;2022-10-31T16:02:10;98017.66;;;13.29;100.00
45939;BME280;31650;48.818;9.116;2022-10-31T16:17:12;98018.66;;;13.05;100.00
45939;BME280;31650;48.818;9.116;2022-10-31T16:47:29;98018.75;;;12.44;100.00
45939;BME280;31650;48.818;9.116;2022-10-31T17:02:30;98004.34;;;12.55;100.00
45939;BME280;31650;48.818;9.116;2022-10-31T17:17:30;97998.63;;;12.57;100.00
45939;BME280;31650;48.818;9.116;2022-10-31T17:32:30;98022.44;;;12.20;100.00
45939;BME280;31650;48.818;9.116;2022-10-31T17:47:31;98012.03;;;11.73;100.00
45939;BME280;31650;48.818;9.116;2022-10-31T18:02:31;97990.34;;;11.23;100.00
45939;BME280;31650;48.818;9.116;2022-10-31T18:17:32;97979.19;;;10.87;100.00
45939;BME280;31650;48.818;9.116;2022-10-31T18:32:32;97927.69;;;11.11;100.00
45939;BME280;31650;48.818;9.116;2022-10-31T18:47:32;97932.63;;;11.76;100.00
45939;BME280;31650;48.818;9.116;2022-10-31T19:02:33;97916.78;;;11.85;100.00
45939;BME280;31650;48.818;9.116;2022-10-31T19:17:33;98012.81;;;12.17;100.00
45939;BME280;31650;48.818;9.116;2022-10-31T19:32:33;98008.75;;;12.08;100.00
45939;BME280;31650;48.818;9.116;2022-10-31T19:47:33;97980.97;;;11.62;100.00
45939;BME280;31650;48.818;9.116;2022-10-31T20:02:33;97972.25;;;11.54;100.00
45939;BME280;31650;48.818;9.116;2022-10-31T20:17:34;98001.16;;;11.55;100.00
45939;BME280;31650;48.818;9.116;2022-10-31T20:32:34;97998.88;;;11.70;100.00
45939;BME280;31650;48.818;9.116;2022-10-31T20:47:34;97979.97;;;11.75;100.00
45939;BME280;31650;48.818;9.116;2022-10-31T21:02:35;97967.97;;;12.31;100.00
45939;BME280;31650;48.818;9.116;2022-10-31T21:17:35;98005.50;;;11.99;100.00
45939;BME280;31650;48.818;9.116;2022-10-31T21:32:35;98036.34;;;10.81;100.00
45939;BME280;31650;48.818;9.116;2022-10-31T21:47:36;98046.69;;;10.65;100.00
45939;BME280;31650;48.818;9.116;2022-10-31T22:02:36;98038.78;;;10.89;100.00
45939;BME280;31650;48.818;9.116;2022-10-31T22:17:36;98002.50;;;10.70;100.00
45939;BME280;31650;48.818;9.116;2022-10-31T22:32:36;98009.06;;;10.62;100.00
45939;BME280;31650;48.818;9.116;2022-10-31T22:47:38;97977.28;;;10.88;100.00
45939;BME280;31650;48.818;9.116;2022-10-31T23:02:39;97990.69;;;10.90;100.00
45939;BME280;31650;48.818;9.116;2022-10-31T23:17:39;98008.03;;;10.88;100.00
45939;BME280;31650;48.818;9.116;2022-10-31T23:32:39;98000.59;;;10.77;100.00
45939;BME280;31650;48.818;9.116;2022-10-31T23:47:39;97995.44;;;10.69;100.00
